Time;durP1;ratioP1;P1;durP2;ratioP2;P2;SDS_P1;SDS_P2;PMS_P1;PMS_P2;Temp;Humidity;BMP_temperature;BMP_pressure;BME280_temperature;BME280_humidity;BME280_pressure;Samples;Min_cycle;Max_cycle;Signal;HPM_P1;HPM_P2
2021/05/19 00:01:59;;;;;;;3.83;1.70;;;9.70;91.00;;;;;;5912656;24;20202;-87
2021/05/19 00:04:26;;;;;;;2.20;1.60;;;9.70;91.30;;;;;;5913142;24;20230;-88
2021/05/19 00:06:53;;;;;;;1.60;1.50;;;9.70;91.20;;;;;;5913152;24;20217;-86
2021/05/19 00:09:19;;;;;;;3.13;1.70;;;9.70;91.30;;;;;;5914076;24;20207;-88
2021/05/19 00:11:46;;;;;;;1.85;1.50;;;9.70;91.30;;;;;;5914098;24;20650;-89
2021/05/19 00:14:15;;;;;;;2.55;1.52;;;9.70;91.00;;;;;;5914053;24;20217;-87
2021/05/19 00:16:42;;;;;;;1.65;1.40;;;9.80;90.80;;;;;;5914650;24;20631;-86
2021/05/19 00:19:09;;;;;;;3.80;1.50;;;9.80;90.60;;;;;;5914342;24;20276;-87
2021/05/19 00:21:37;;;;;;;3.28;1.58;;;9.80;90.60;;;;;;5915329;24;20237;-89
2021/05/19 00:24:03;;;;;;;1.65;1.38;;;9.80;90.60;;;;;;5914729;24;20723;-88
2021/05/19 00:26:30;;;;;;;3.17;1.20;;;10.00;90.30;;;;;;5915259;24;20472;-87
2021/05/19 00:28:57;;;;;;;1.45;1.25;;;10.00;90.00;;;;;;5914649;24;20232;-88
2021/05/19 00:31:25;;;;;;;2.35;1.40;;;10.00;89.00;;;;;;5915239;24;20197;-87
2021/05/19 00:33:51;;;;;;;1.67;1.40;;;10.00;89.80;;;;;;5916013;24;20213;-88
2021/05/19 00:36:18;;;;;;;1.40;1.30;;;10.00;90.00;;;;;;5916215;24;20284;-87
2021/05/19 00:38:45;;;;;;;2.40;1.23;;;10.00;90.10;;;;;;5915784;24;20914;-87
2021/05/19 00:41:13;;;;;;;3.22;1.38;;;10.00;89.60;;;;;;5916241;24;20242;-86
2021/05/19 00:43:40;;;;;;;2.13;1.27;;;10.10;88.80;;;;;;5915029;24;20237;-87
2021/05/19 00:46:08;;;;;;;3.92;1.30;;;10.10;87.20;;;;;;5916454;24;20185;-87
2021/05/19 00:48:34;;;;;;;1.77;1.20;;;10.10;87.50;;;;;;5915960;24;20534;-90
2021/05/19 00:51:01;;;;;;;2.25;1.40;;;10.10;87.20;;;;;;5916365;24;20256;-88
2021/05/19 00:53:27;;;;;;;2.92;1.45;;;10.00;87.90;;;;;;5915359;24;20209;-88
2021/05/19 00:55:55;;;;;;;1.63;1.20;;;10.00;87.80;;;;;;5916661;24;20203;-87
2021/05/19 00:58:21;;;;;;;1.40;1.30;;;9.90;89.30;;;;;;5915730;24;20213;-87
2021/05/19 01:00:48;;;;;;;1.30;1.17;;;9.90;89.70;;;;;;5916667;24;20185;-86
2021/05/19 01:03:14;;;;;;;1.30;1.20;;;9.90;89.90;;;;;;5916021;24;20216;-86
2021/05/19 01:05:44;;;;;;;2.42;1.20;;;9.90;89.40;;;;;;5916069;24;20267;-87
2021/05/19 01:10:56;;;;;;;1.83;1.27;;;9.80;88.50;;;;;;5914992;24;20681;-88
2021/05/19 01:13:23;;;;;;;5.15;1.90;;;9.80;89.30;;;;;;5916736;24;20227;-89
2021/05/19 01:15:49;;;;;;;2.33;1.40;;;9.80;89.30;;;;;;5915910;24;20217;-88
2021/05/19 01:18:16;;;;;;;2.75;1.08;;;9.80;89.30;;;;;;5916133;24;20217;-88
2021/05/19 01:20:43;;;;;;;3.03;1.40;;;9.80;89.70;;;;;;5917023;24;20188;-88
2021/05/19 01:23:10;;;;;;;1.00;1.00;;;9.80;88.60;;;;;;5915804;24;20230;-86
2021/05/19 01:25:38;;;;;;;1.73;1.23;;;9.80;88.20;;;;;;5916551;24;20213;-87
2021/05/19 01:28:05;;;;;;;2.47;1.20;;;9.90;88.60;;;;;;5916618;24;20211;-89
2021/05/19 01:30:34;;;;;;;1.75;1.00;;;9.80;88.00;;;;;;5917138;24;20269;-87
2021/05/19 01:33:00;;;;;;;1.40;1.20;;;9.80;87.90;;;;;;5916450;24;20252;-87
2021/05/19 01:35:27;;;;;;;1.40;1.30;;;9.90;88.00;;;;;;5916747;24;20225;-88
2021/05/19 01:37:53;;;;;;;1.63;1.25;;;9.90;87.40;;;;;;5914432;24;20209;-87
2021/05/19 01:40:23;;;;;;;1.73;1.00;;;9.80;87.40;;;;;;5917427;24;20182;-88
2021/05/19 01:42:50;;;;;;;2.03;1.38;;;9.80;87.60;;;;;;5914676;24;20240;-86
2021/05/19 01:45:22;;;;;;;2.25;1.20;;;9.90;88.10;;;;;;5916730;24;20196;-87
2021/05/19 01:47:52;;;;;;;2.88;1.15;;;9.90;87.10;;;;;;5916264;24;20208;-86
2021/05/19 01:50:20;;;;;;;1.80;1.20;;;9.90;86.60;;;;;;5916208;24;20205;-87
2021/05/19 01:52:48;;;;;;;1.23;1.10;;;9.90;86.40;;;;;;5915251;24;20219;-86
2021/05/19 01:55:16;;;;;;;2.05;1.00;;;9.90;86.90;;;;;;5916866;24;20186;-86
2021/05/19 01:57:45;;;;;;;2.10;1.23;;;9.80;87.50;;;;;;5915792;24;20205;-87
2021/05/19 02:00:14;;;;;;;2.05;0.93;;;9.80;87.80;;;;;;5916967;24;20178;-86
2021/05/19 02:02:42;;;;;;;1.00;0.93;;;9.80;87.10;;;;;;5915471;24;20215;-88
2021/05/19 02:05:12;;;;;;;2.10;1.17;;;9.80;87.40;;;;;;5916658;24;20272;-88
2021/05/19 02:07:39;;;;;;;2.72;1.20;;;9.80;87.30;;;;;;5916037;24;20264;-87
2021/05/19 02:10:07;;;;;;;1.35;0.95;;;9.80;87.60;;;;;;5916554;24;20201;-87
2021/05/19 02:12:34;;;;;;;1.60;1.02;;;9.80;87.40;;;;;;5914654;24;20260;-87
2021/05/19 02:15:01;;;;;;;5.25;1.17;;;9.80;87.20;;;;;;5915344;24;20261;-87
2021/05/19 02:17:28;;;;;;;1.40;1.20;;;9.80;87.20;;;;;;5914455;24;20205;-89
2021/05/19 02:19:55;;;;;;;1.65;1.10;;;9.80;87.40;;;;;;5916362;24;20271;-87
2021/05/19 02:22:21;;;;;;;3.65;1.48;;;9.70;87.60;;;;;;5914981;24;20212;-89
2021/05/19 02:24:48;;;;;;;2.95;1.08;;;9.70;88.00;;;;;;5912731;24;20181;-86
2021/05/19 02:27:14;;;;;;;2.47;1.25;;;9.60;88.90;;;;;;5913064;24;20265;-87
2021/05/19 02:29:41;;;;;;;1.20;1.05;;;9.60;88.90;;;;;;5913643;24;20209;-87
2021/05/19 02:32:09;;;;;;;1.40;1.30;;;9.60;89.30;;;;;;5913401;24;20192;-87
2021/05/19 02:34:35;;;;;;;3.85;1.20;;;9.60;89.40;;;;;;5913458;24;20188;-91
2021/05/19 02:37:01;;;;;;;2.88;1.52;;;9.70;88.80;;;;;;5914234;24;20233;-89
2021/05/19 02:39:28;;;;;;;1.95;1.40;;;9.70;88.80;;;;;;5914759;24;20204;-86
2021/05/19 02:41:54;;;;;;;3.28;1.20;;;9.60;89.00;;;;;;5914059;24;20260;-88
2021/05/19 02:44:20;;;;;;;2.15;1.30;;;9.70;89.00;;;;;;5915390;24;20509;-88
2021/05/19 02:46:47;;;;;;;1.77;1.20;;;9.60;88.90;;;;;;5915231;24;20185;-88
2021/05/19 02:49:14;;;;;;;2.88;1.20;;;9.60;89.90;;;;;;5914236;24;20246;-86
2021/05/19 02:51:41;;;;;;;2.33;1.20;;;9.60;89.80;;;;;;5913390;24;20720;-87
2021/05/19 02:54:08;;;;;;;1.45;1.15;;;9.60;89.50;;;;;;5915026;24;20242;-89
2021/05/19 02:56:35;;;;;;;3.10;1.20;;;9.50;89.80;;;;;;5915393;24;20212;-89
2021/05/19 02:59:01;;;;;;;2.40;1.30;;;9.60;89.70;;;;;;5914882;24;20225;-87
2021/05/19 03:01:28;;;;;;;1.50;1.33;;;9.60;90.10;;;;;;5914369;24;20182;-87
2021/05/19 03:03:54;;;;;;;1.40;1.27;;;9.50;90.20;;;;;;5913379;24;20284;-87
2021/05/19 03:06:23;;;;;;;1.60;1.13;;;9.60;88.80;;;;;;5915203;24;20271;-90
2021/05/19 03:08:49;;;;;;;1.92;1.25;;;9.60;89.40;;;;;;5915555;24;20542;-86
2021/05/19 03:11:16;;;;;;;2.35;1.38;;;9.60;90.00;;;;;;5914954;24;20181;-88
2021/05/19 03:13:43;;;;;;;1.40;1.20;;;9.60;90.30;;;;;;5914393;24;20213;-86
2021/05/19 03:16:09;;;;;;;3.03;1.20;;;9.60;90.00;;;;;;5915369;24;20191;-86
2021/05/19 03:18:36;;;;;;;2.28;1.40;;;9.60;90.30;;;;;;5914122;24;20292;-87
2021/05/19 03:21:03;;;;;;;3.47;1.50;;;9.60;90.40;;;;;;5914413;24;20555;-89
2021/05/19 03:23:31;;;;;;;2.28;1.27;;;9.60;90.00;;;;;;5915033;24;20261;-89
2021/05/19 03:25:58;;;;;;;1.92;1.30;;;9.60;90.10;;;;;;5915172;24;20221;-88
2021/05/19 03:28:25;;;;;;;1.67;1.58;;;9.60;90.30;;;;;;5913465;24;20232;-87
2021/05/19 03:30:52;;;;;;;2.17;1.20;;;9.60;90.10;;;;;;5915588;24;20183;-85
2021/05/19 03:33:19;;;;;;;1.63;1.33;;;9.70;89.90;;;;;;5915469;24;20259;-89
2021/05/19 03:35:46;;;;;;;2.75;1.40;;;9.70;89.60;;;;;;5915575;24;20222;-87
2021/05/19 03:38:13;;;;;;;3.38;1.40;;;9.70;89.40;;;;;;5914310;24;20208;-86
2021/05/19 03:40:40;;;;;;;2.53;1.63;;;9.70;90.40;;;;;;5915474;24;20182;-86
2021/05/19 03:43:07;;;;;;;4.15;1.60;;;9.70;90.00;;;;;;5913547;24;20227;-87
2021/05/19 03:45:34;;;;;;;2.35;1.35;;;9.70;89.30;;;;;;5915104;24;20196;-86
2021/05/19 03:48:00;;;;;;;2.13;1.52;;;9.80;89.10;;;;;;5915285;24;20205;-87
2021/05/19 03:50:29;;;;;;;2.53;1.58;;;9.70;89.00;;;;;;5915296;24;20189;-87
2021/05/19 03:52:56;;;;;;;2.88;1.80;;;9.70;89.00;;;;;;5915284;24;20209;-86
2021/05/19 03:55:23;;;;;;;1.83;1.38;;;9.70;89.70;;;;;;5915612;24;20295;-86
2021/05/19 03:57:50;;;;;;;1.85;1.50;;;9.70;90.10;;;;;;5915249;24;20260;-86
2021/05/19 04:00:20;;;;;;;4.45;2.00;;;9.80;89.80;;;;;;5915707;24;20181;-87
2021/05/19 04:02:49;;;;;;;3.55;1.90;;;9.70;90.10;;;;;;5915185;24;20209;-89
2021/05/19 04:05:16;;;;;;;2.67;2.10;;;9.70;90.20;;;;;;5915774;24;20178;-86
2021/05/19 04:07:43;;;;;;;2.20;2.00;;;9.70;89.30;;;;;;5916863;24;20253;-86
2021/05/19 04:10:10;;;;;;;3.83;2.35;;;9.80;89.90;;;;;;5915946;24;20666;-88
2021/05/19 04:12:37;;;;;;;1.88;1.77;;;9.80;90.20;;;;;;5915373;24;20216;-89
2021/05/19 04:15:05;;;;;;;3.97;2.17;;;9.80;90.30;;;;;;5917058;24;20209;-90
2021/05/19 04:17:32;;;;;;;5.03;2.25;;;9.80;89.40;;;;;;5916620;24;20205;-88
2021/05/19 04:19:58;;;;;;;2.70;2.22;;;9.80;90.20;;;;;;5917052;24;20189;-89
2021/05/19 04:22:25;;;;;;;3.47;2.40;;;9.80;90.30;;;;;;5916470;24;20249;-86
2021/05/19 04:24:51;;;;;;;2.83;2.50;;;9.80;90.00;;;;;;5916820;24;20189;-85
2021/05/19 04:27:17;;;;;;;4.10;2.28;;;9.80;90.30;;;;;;5917023;24;20213;-86
2021/05/19 04:29:44;;;;;;;4.15;2.30;;;9.80;90.60;;;;;;5917565;24;20272;-86
2021/05/19 04:32:11;;;;;;;3.13;2.80;;;9.80;90.60;;;;;;5916382;24;20188;-87
2021/05/19 04:34:38;;;;;;;3.10;2.65;;;9.70;90.60;;;;;;5917521;24;20267;-87
2021/05/19 04:37:06;;;;;;;2.70;2.50;;;9.70;90.60;;;;;;5916226;24;20204;-86
2021/05/19 04:39:32;;;;;;;2.90;2.70;;;9.60;90.80;;;;;;5916861;24;20181;-86
2021/05/19 04:41:59;;;;;;;3.28;2.92;;;9.60;91.50;;;;;;5915453;24;20217;-88
2021/05/19 04:44:26;;;;;;;4.38;2.80;;;9.60;92.20;;;;;;5915581;24;20185;-85
2021/05/19 04:46:52;;;;;;;4.03;3.05;;;9.50;92.30;;;;;;5916173;24;20189;-86
2021/05/19 04:49:20;;;;;;;4.43;3.40;;;9.50;93.10;;;;;;5913616;24;20293;-89
2021/05/19 04:51:46;;;;;;;3.33;3.03;;;9.50;93.30;;;;;;5914847;24;20192;-86
2021/05/19 04:54:13;;;;;;;5.30;3.20;;;9.60;93.50;;;;;;5941448;24;20248;-86
2021/05/19 04:56:40;;;;;;;3.45;2.80;;;9.60;93.40;;;;;;5941112;24;20196;-91
2021/05/19 04:59:06;;;;;;;3.28;2.60;;;9.50;93.70;;;;;;5940807;24;20226;-86
2021/05/19 05:01:33;;;;;;;3.10;2.47;;;9.60;93.50;;;;;;5942192;24;20183;-86
2021/05/19 05:04:00;;;;;;;3.65;2.42;;;9.50;93.70;;;;;;5942124;24;20275;-87
2021/05/19 05:06:27;;;;;;;3.72;2.53;;;9.50;93.50;;;;;;5942843;24;20237;-87
2021/05/19 05:08:54;;;;;;;3.08;2.60;;;9.60;93.30;;;;;;5941996;24;20216;-86
2021/05/19 05:11:20;;;;;;;4.30;2.22;;;9.70;93.50;;;;;;5940963;24;20233;-86
2021/05/19 05:13:47;;;;;;;3.58;2.65;;;9.80;93.00;;;;;;5942696;24;20291;-86
2021/05/19 05:16:14;;;;;;;2.70;2.50;;;9.90;92.70;;;;;;5942177;24;20187;-86
2021/05/19 05:18:42;;;;;;;5.13;2.40;;;9.90;92.30;;;;;;5941555;24;20239;-86
2021/05/19 05:21:11;;;;;;;4.63;2.65;;;10.00;91.80;;;;;;5940927;24;20183;-86
2021/05/19 05:23:40;;;;;;;4.93;2.38;;;10.00;91.60;;;;;;5943266;24;20303;-85
2021/05/19 05:26:06;;;;;;;2.50;2.30;;;9.90;92.10;;;;;;5942872;24;20206;-86
2021/05/19 05:28:33;;;;;;;3.40;2.40;;;9.90;91.90;;;;;;5940662;24;20212;-86
2021/05/19 05:30:59;;;;;;;6.13;2.70;;;9.90;91.90;;;;;;5942286;24;20176;-86
2021/05/19 05:33:26;;;;;;;2.17;1.98;;;9.90;92.30;;;;;;5941756;24;20212;-86
2021/05/19 05:35:52;;;;;;;4.85;2.10;;;9.90;91.90;;;;;;5941639;24;20244;-85
2021/05/19 05:38:19;;;;;;;7.32;2.83;;;9.70;92.20;;;;;;5941119;24;20273;-85
2021/05/19 05:40:47;;;;;;;4.03;2.00;;;9.60;92.90;;;;;;5941732;24;20204;-85
2021/05/19 05:43:13;;;;;;;4.28;2.40;;;9.50;93.80;;;;;;5941318;24;20303;-87
2021/05/19 05:45:40;;;;;;;3.17;2.40;;;9.50;93.70;;;;;;5940338;24;20184;-87
2021/05/19 05:48:07;;;;;;;5.45;2.40;;;9.60;94.10;;;;;;5941115;24;20215;-85
2021/05/19 05:50:33;;;;;;;5.47;2.38;;;9.70;93.70;;;;;;5941121;24;20580;-86
2021/05/19 05:52:59;;;;;;;2.47;2.28;;;9.80;93.70;;;;;;5941250;24;20814;-87
2021/05/19 05:55:26;;;;;;;2.55;2.03;;;9.80;93.30;;;;;;5941482;24;20183;-85
2021/05/19 05:57:54;;;;;;;4.80;2.70;;;9.90;93.10;;;;;;5941152;24;20211;-88
2021/05/19 06:00:21;;;;;;;4.38;2.42;;;9.90;93.40;;;;;;5942126;24;20185;-86
2021/05/19 06:02:47;;;;;;;5.53;2.95;;;10.00;92.90;;;;;;5941783;24;20327;-86
2021/05/19 06:05:16;;;;;;;5.25;3.00;;;10.10;92.20;;;;;;5943751;24;20176;-85
2021/05/19 06:07:42;;;;;;;5.40;2.80;;;10.10;92.20;;;;;;5944800;24;20205;-86
2021/05/19 06:10:11;;;;;;;5.88;2.67;;;10.30;91.90;;;;;;5946697;24;20204;-85
2021/05/19 06:12:38;;;;;;;8.52;3.30;;;10.50;92.00;;;;;;5932577;24;20220;-87
2021/05/19 06:15:08;;;;;;;6.63;2.88;;;10.50;91.80;;;;;;5944282;24;20299;-85
2021/05/19 06:17:37;;;;;;;4.15;2.95;;;10.60;91.10;;;;;;5946424;24;20273;-86
2021/05/19 06:20:09;;;;;;;7.80;3.13;;;10.50;91.20;;;;;;5943484;24;20172;-86
2021/05/19 06:22:35;;;;;;;4.28;2.90;;;10.50;91.00;;;;;;5949847;24;20222;-86
2021/05/19 06:25:02;;;;;;;4.90;3.17;;;10.60;91.30;;;;;;5968018;24;20184;-86
2021/05/19 06:27:29;;;;;;;3.83;3.00;;;10.50;91.10;;;;;;5969171;24;20208;-83
2021/05/19 06:30:03;;;;;;;6.35;3.35;;;10.60;91.10;;;;;;5971116;24;20204;-83
2021/05/19 06:32:48;;;;;;;5.60;3.42;;;10.70;90.80;;;;;;5890311;24;20182;-87
2021/05/19 06:35:21;;;;;;;6.60;3.35;;;11.10;90.50;;;;;;5958530;24;20183;-87
2021/05/19 06:37:47;;;;;;;4.55;2.80;;;11.40;89.40;;;;;;5973355;24;20220;-87
2021/05/19 06:40:31;;;;;;;3.88;2.95;;;11.50;84.50;;;;;;5974347;24;20204;-87
2021/05/19 06:46:54;;;;;;;5.47;3.28;;;11.60;82.80;;;;;;5975320;24;20147;-88
2021/05/19 06:49:34;;;;;;;4.25;2.85;;;11.60;82.90;;;;;;5970791;24;20251;-87
2021/05/19 06:52:44;;;;;;;6.93;3.80;;;11.50;83.50;;;;;;5974402;24;20247;-88
2021/05/19 06:55:12;;;;;;;3.95;3.25;;;11.60;83.60;;;;;;5973521;24;20188;-86
2021/05/19 06:57:45;;;;;;;4.05;3.28;;;11.80;82.60;;;;;;5973048;24;20253;-87
2021/05/19 07:00:13;;;;;;;4.07;2.92;;;12.00;82.80;;;;;;5973155;24;20165;-86
2021/05/19 07:02:39;;;;;;;4.10;3.30;;;12.10;81.90;;;;;;5971799;24;20264;-86
2021/05/19 07:20:32;;;;;;;3.95;3.65;;;12.30;80.20;;;;;;5981695;23;20219;-87
2021/05/19 07:22:59;;;;;;;4.10;3.70;;;11.80;81.50;;;;;;5986762;24;20220;-87
2021/05/19 07:25:26;;;;;;;4.30;3.90;;;11.60;82.90;;;;;;5971221;24;20184;-86
2021/05/19 07:27:52;;;;;;;4.00;3.60;;;11.70;84.00;;;;;;5969986;24;20219;-88
2021/05/19 07:30:20;;;;;;;4.35;3.95;;;11.80;85.80;;;;;;5970747;24;20214;-87
2021/05/19 07:32:47;;;;;;;5.15;3.72;;;12.10;83.90;;;;;;5971112;24;20215;-87
2021/05/19 07:49:19;;;;;;;5.28;3.90;;;12.50;78.90;;;;;;5972495;24;20195;-87
2021/05/19 07:51:54;;;;;;;4.32;3.65;;;12.40;78.60;;;;;;5971496;24;20199;-87
2021/05/19 07:54:27;;;;;;;6.88;4.18;;;12.30;78.30;;;;;;5967136;24;20266;-86
2021/05/19 07:56:56;;;;;;;5.05;4.00;;;12.30;78.70;;;;;;5970526;24;20205;-87
2021/05/19 07:59:25;;;;;;;5.68;4.10;;;12.60;78.10;;;;;;5959799;24;20187;-87
2021/05/19 08:02:16;;;;;;;4.97;3.75;;;12.80;75.70;;;;;;5970950;24;20636;-87
2021/05/19 08:04:45;;;;;;;7.50;4.43;;;12.80;75.70;;;;;;5971409;24;20184;-87
2021/05/19 08:21:34;;;;;;;5.20;3.90;;;13.10;72.90;;;;;;5961760;24;20218;-87
2021/05/19 08:24:01;;;;;;;5.30;4.03;;;14.00;67.30;;;;;;5962413;24;20215;-89
2021/05/19 08:26:27;;;;;;;4.45;3.30;;;15.10;61.50;;;;;;5963841;24;20205;-88
2021/05/19 08:28:54;;;;;;;4.25;3.85;;;15.80;52.10;;;;;;5963517;24;20341;-87
2021/05/19 08:31:20;;;;;;;6.68;4.10;;;15.10;54.10;;;;;;5962388;24;20187;-87
2021/05/19 08:36:38;;;;;;;6.45;4.38;;;13.20;70.00;;;;;;5974257;24;20190;-86
2021/05/19 08:39:05;;;;;;;6.03;4.53;;;12.50;75.50;;;;;;5970294;24;20216;-88
2021/05/19 08:41:45;;;;;;;7.60;4.72;;;11.90;79.00;;;;;;5971971;24;20182;-86
2021/05/19 08:44:12;;;;;;;5.15;4.38;;;11.60;81.60;;;;;;5970660;24;20211;-87
2021/05/19 08:46:49;;;;;;;5.50;4.95;;;11.50;81.20;;;;;;5971962;24;20208;-86
2021/05/19 08:49:17;;;;;;;7.97;5.53;;;11.60;81.20;;;;;;5973107;24;20208;-88
2021/05/19 08:51:45;;;;;;;5.35;4.65;;;11.50;81.20;;;;;;5972706;24;20228;-88
2021/05/19 08:54:12;;;;;;;8.00;5.20;;;11.70;81.00;;;;;;5973394;24;20236;-89
2021/05/19 08:56:39;;;;;;;5.55;4.97;;;11.80;80.50;;;;;;5971714;24;20195;-89
2021/05/19 08:59:06;;;;;;;7.35;5.50;;;12.00;78.90;;;;;;5970497;24;20212;-90
2021/05/19 09:01:40;;;;;;;8.88;5.90;;;12.20;79.00;;;;;;5970299;24;20547;-88
2021/05/19 09:04:09;;;;;;;6.97;5.65;;;12.50;78.60;;;;;;5972535;24;20286;-90
2021/05/19 09:10:47;;;;;;;6.45;5.18;;;13.20;76.00;;;;;;5927365;24;20208;-88
2021/05/19 09:13:30;;;;;;;6.68;5.78;;;13.10;72.20;;;;;;5972520;24;20263;-88
2021/05/19 09:15:57;;;;;;;8.60;5.53;;;13.00;76.00;;;;;;5946951;24;20173;-88
2021/05/19 09:18:23;;;;;;;9.70;5.60;;;12.90;76.70;;;;;;5946283;24;20224;-89
2021/05/19 09:20:51;;;;;;;5.57;5.07;;;12.80;75.80;;;;;;5947666;24;20185;-90
2021/05/19 09:23:21;;;;;;;8.30;5.90;;;12.60;76.70;;;;;;5969763;24;20204;-89
2021/05/19 09:26:03;;;;;;;7.07;6.05;;;12.60;77.60;;;;;;5970972;24;20212;-89
2021/05/19 09:28:30;;;;;;;8.00;5.82;;;12.80;77.00;;;;;;5971739;24;20249;-89
2021/05/19 09:30:59;;;;;;;7.20;6.13;;;13.40;76.10;;;;;;5951209;24;20241;-88
2021/05/19 09:33:27;;;;;;;7.00;5.25;;;13.50;71.60;;;;;;5971431;24;20218;-88
2021/05/19 09:36:12;;;;;;;6.53;4.80;;;14.70;69.10;;;;;;5964840;24;20191;-89
2021/05/19 09:38:39;;;;;;;5.75;5.22;;;16.80;55.10;;;;;;5967526;24;20593;-87
2021/05/19 09:41:25;;;;;;;6.13;5.00;;;17.80;45.10;;;;;;5970731;24;20194;-88
2021/05/19 09:43:56;;;;;;;6.03;4.50;;;18.30;46.30;;;;;;5970053;24;20208;-88
2021/05/19 09:46:24;;;;;;;5.55;4.43;;;19.00;46.20;;;;;;5969261;24;20168;-87
2021/05/19 09:49:12;;;;;;;5.70;4.40;;;20.00;42.80;;;;;;5967707;24;20236;-89
2021/05/19 09:51:39;;;;;;;4.50;4.15;;;20.80;37.20;;;;;;5966380;24;20168;-82
2021/05/19 09:54:06;;;;;;;4.60;4.20;;;21.50;33.30;;;;;;5967032;24;20235;-86
2021/05/19 09:56:33;;;;;;;4.40;4.00;;;21.00;33.80;;;;;;5968476;24;20190;-84
2021/05/19 09:59:01;;;;;;;5.45;4.65;;;20.40;36.40;;;;;;5968358;24;20208;-88
2021/05/19 10:01:27;;;;;;;6.70;4.55;;;20.90;32.90;;;;;;5968806;24;20180;-85
2021/05/19 10:03:53;;;;;;;4.55;4.13;;;20.70;34.60;;;;;;5969616;24;20216;-88
2021/05/19 10:06:24;;;;;;;5.45;4.68;;;19.10;36.40;;;;;;5970534;24;20186;-86
2021/05/19 10:08:51;;;;;;;4.85;4.45;;;17.80;41.50;;;;;;5970380;24;20553;-87
2021/05/19 10:11:18;;;;;;;5.85;4.70;;;16.30;47.50;;;;;;5968911;24;20176;-86
2021/05/19 10:13:45;;;;;;;5.78;4.88;;;15.70;52.00;;;;;;5971203;24;20464;-88
2021/05/19 10:16:16;;;;;;;5.03;4.63;;;15.50;55.80;;;;;;5971082;24;20180;-89
2021/05/19 10:18:48;;;;;;;8.13;4.90;;;15.70;56.10;;;;;;5947391;24;20208;-87
2021/05/19 10:21:15;;;;;;;5.10;4.53;;;16.00;49.90;;;;;;5970597;24;20192;-88
2021/05/19 10:24:00;;;;;;;5.35;4.57;;;16.20;49.30;;;;;;5970623;24;20218;-86
2021/05/19 10:26:27;;;;;;;5.10;4.43;;;16.70;46.90;;;;;;5971489;24;20180;-87
2021/05/19 10:28:53;;;;;;;4.22;3.83;;;16.60;45.00;;;;;;5971080;24;20263;-90
2021/05/19 10:31:41;;;;;;;4.68;4.05;;;16.30;47.20;;;;;;5969272;24;20266;-86
2021/05/19 10:34:10;;;;;;;6.70;3.60;;;16.00;45.00;;;;;;5960595;24;20230;-88
2021/05/19 10:36:39;;;;;;;4.57;3.72;;;15.10;46.50;;;;;;5959391;24;20176;-88
2021/05/19 10:39:28;;;;;;;5.63;4.28;;;14.80;49.40;;;;;;5966594;24;20545;-89
2021/05/19 10:42:37;;;;;;;3.78;3.47;;;13.90;57.00;;;;;;5969902;24;20175;-89
2021/05/19 10:45:07;;;;;;;4.15;3.53;;;13.30;58.50;;;;;;5945597;24;20199;-89
2021/05/19 10:47:34;;;;;;;3.83;3.50;;;13.10;57.60;;;;;;5966207;24;20208;-88
2021/05/19 10:50:16;;;;;;;4.35;3.95;;;12.90;60.00;;;;;;5965774;24;20290;-89
2021/05/19 10:58:53;;;;;;;5.40;4.03;;;11.80;70.60;;;;;;5969804;24;20226;-87
2021/05/19 11:05:10;;;;;;;6.57;4.18;;;11.50;74.70;;;;;;5968913;24;20179;-88
2021/05/19 11:07:37;;;;;;;4.32;3.90;;;11.50;75.50;;;;;;5968373;24;20260;-87
2021/05/19 11:10:25;;;;;;;5.25;3.50;;;11.60;75.90;;;;;;5969940;24;20207;-89
2021/05/19 11:12:55;;;;;;;3.63;3.20;;;11.60;76.50;;;;;;5973011;24;20259;-89
2021/05/19 11:15:58;;;;;;;4.18;3.35;;;11.90;76.40;;;;;;5971651;24;20203;-89
2021/05/19 11:18:34;;;;;;;4.05;3.05;;;12.00;77.20;;;;;;5937027;24;20211;-90
2021/05/19 11:21:03;;;;;;;3.28;2.97;;;12.20;75.50;;;;;;5964684;24;20187;-92
2021/05/19 11:23:29;;;;;;;5.18;3.15;;;12.60;75.60;;;;;;5964894;24;20215;-90
2021/05/19 11:26:09;;;;;;;3.53;3.13;;;12.80;74.10;;;;;;5965747;24;20192;-90
2021/05/19 11:28:36;;;;;;;3.17;2.88;;;13.10;70.60;;;;;;5966435;24;20255;-90
2021/05/19 11:31:51;;;;;;;3.47;2.63;;;13.30;70.10;;;;;;5972225;24;20200;-89
2021/05/19 11:34:20;;;;;;;3.10;2.63;;;13.70;69.10;;;;;;5960296;24;20500;-90
2021/05/19 11:36:50;;;;;;;3.67;3.05;;;13.90;69.20;;;;;;5966959;24;20226;-90
2021/05/19 11:39:30;;;;;;;3.42;2.97;;;14.40;70.30;;;;;;5963032;24;20219;-90
2021/05/19 11:42:19;;;;;;;3.70;3.13;;;15.00;58.10;;;;;;5957696;24;20164;-90
2021/05/19 11:44:49;;;;;;;3.92;3.28;;;15.60;56.10;;;;;;5958482;24;20633;-90
2021/05/19 11:47:22;;;;;;;4.18;3.33;;;15.90;52.20;;;;;;5957352;24;20199;-91
2021/05/19 11:49:49;;;;;;;3.13;2.85;;;16.30;52.50;;;;;;5958524;24;20489;-90
2021/05/19 11:52:16;;;;;;;3.33;2.95;;;16.00;52.00;;;;;;5962607;24;20237;-90
2021/05/19 11:54:43;;;;;;;3.00;2.63;;;16.20;52.50;;;;;;5964314;24;20613;-91
2021/05/19 11:57:10;;;;;;;4.22;3.00;;;16.40;50.90;;;;;;5963562;24;20244;-91
2021/05/19 11:59:39;;;;;;;2.90;2.70;;;16.70;50.00;;;;;;5963050;24;20184;-90
2021/05/19 12:02:07;;;;;;;3.58;3.10;;;17.00;46.80;;;;;;5961972;24;20217;-91
2021/05/19 12:04:36;;;;;;;3.10;2.85;;;16.30;44.30;;;;;;5963523;24;20184;-90
2021/05/19 12:07:06;;;;;;;2.80;2.60;;;16.90;46.00;;;;;;5963111;24;20176;-90
2021/05/19 12:09:38;;;;;;;4.95;2.80;;;17.20;44.30;;;;;;5963338;24;20210;-91
2021/05/19 12:12:11;;;;;;;2.83;2.63;;;17.30;45.50;;;;;;5962403;24;20168;-90
2021/05/19 12:14:38;;;;;;;3.00;2.65;;;16.90;45.90;;;;;;5961414;24;20226;-90
2021/05/19 12:17:05;;;;;;;3.42;3.10;;;16.30;47.50;;;;;;5962360;24;20176;-90
2021/05/19 12:19:36;;;;;;;3.63;3.15;;;15.60;50.20;;;;;;5960343;24;20173;-91
2021/05/19 12:22:14;;;;;;;4.85;2.40;;;14.80;51.20;;;;;;5962087;24;20215;-90
2021/05/19 12:24:54;;;;;;;3.67;2.50;;;14.30;58.40;;;;;;5966136;24;20184;-90
2021/05/19 12:27:22;;;;;;;3.55;2.80;;;13.90;60.00;;;;;;5971258;24;20282;-91
2021/05/19 12:29:59;;;;;;;2.70;2.50;;;13.60;62.00;;;;;;5973365;24;20200;-90
2021/05/19 12:32:36;;;;;;;3.05;2.30;;;13.40;66.40;;;;;;5958809;24;20199;-89
2021/05/19 12:35:24;;;;;;;3.92;2.50;;;13.20;68.10;;;;;;5975732;24;20176;-92
2021/05/19 12:37:56;;;;;;;3.40;2.10;;;13.00;72.90;;;;;;5951236;24;20203;-90
2021/05/19 12:40:26;;;;;;;5.13;2.33;;;12.80;75.80;;;;;;5971386;24;20171;-89
2021/05/19 12:42:57;;;;;;;3.25;2.40;;;12.60;75.60;;;;;;5969728;24;20230;-89
2021/05/19 12:45:25;;;;;;;3.10;2.80;;;12.60;76.10;;;;;;5969933;24;20168;-89
2021/05/19 12:48:06;;;;;;;4.35;3.65;;;12.30;77.50;;;;;;5968665;24;20406;-90
2021/05/19 12:50:41;;;;;;;5.10;3.50;;;12.20;75.30;;;;;;5969030;24;20199;-91
2021/05/19 12:53:08;;;;;;;5.22;3.35;;;11.90;77.50;;;;;;5969068;24;20243;-89
2021/05/19 12:55:36;;;;;;;3.80;3.30;;;11.80;79.50;;;;;;5969716;24;20454;-90
2021/05/19 12:58:10;;;;;;;4.40;4.00;;;11.70;79.40;;;;;;5972277;24;20230;-89
2021/05/19 13:00:53;;;;;;;6.60;4.97;;;11.60;83.70;;;;;;5973271;24;20199;-89
2021/05/19 13:06:11;;;;;;;5.97;4.28;;;11.60;89.50;;;;;;5963273;24;20176;-90
2021/05/19 13:08:39;;;;;;;8.40;4.38;;;11.60;85.70;;;;;;5948756;24;20218;-89
2021/05/19 13:11:17;;;;;;;7.63;4.95;;;11.50;86.00;;;;;;5969542;24;20231;-89
2021/05/19 13:13:46;;;;;;;10.52;5.13;;;11.50;87.10;;;;;;5947607;24;20215;-89
2021/05/19 13:16:33;;;;;;;7.90;5.18;;;11.50;87.70;;;;;;5953825;24;20262;-90
2021/05/19 13:19:20;;;;;;;5.40;4.22;;;11.60;87.70;;;;;;5933495;24;20194;-89
2021/05/19 13:21:48;;;;;;;4.57;3.88;;;11.80;90.20;;;;;;5972063;24;20188;-88
2021/05/19 13:24:16;;;;;;;5.80;3.55;;;11.90;88.20;;;;;;5970458;24;20247;-88
2021/05/19 13:26:52;;;;;;;4.50;3.60;;;12.00;86.40;;;;;;5969852;24;20184;-89
2021/05/19 13:29:19;;;;;;;3.45;2.80;;;12.10;85.60;;;;;;5968694;24;20211;-89
2021/05/19 13:31:52;;;;;;;3.17;2.60;;;12.20;78.80;;;;;;5968443;24;20651;-89
2021/05/19 13:34:23;;;;;;;3.17;2.75;;;12.10;78.30;;;;;;5967555;24;20203;-89
2021/05/19 13:36:52;;;;;;;3.15;2.53;;;12.30;78.30;;;;;;5967510;24;20176;-90
2021/05/19 13:39:19;;;;;;;5.30;2.45;;;12.60;75.60;;;;;;5966652;24;20207;-90
2021/05/19 13:41:49;;;;;;;2.20;2.00;;;13.00;75.90;;;;;;5969029;24;20820;-89
2021/05/19 13:44:42;;;;;;;2.38;2.28;;;13.80;69.40;;;;;;5973377;24;20214;-88
2021/05/19 13:47:08;;;;;;;2.60;2.40;;;14.50;67.30;;;;;;5950510;24;20195;-88
2021/05/19 13:49:39;;;;;;;2.47;2.28;;;15.20;63.00;;;;;;5967850;24;20211;-89
2021/05/19 13:52:07;;;;;;;3.63;2.45;;;15.70;55.30;;;;;;5964679;24;20176;-86
2021/05/19 13:54:38;;;;;;;2.13;1.95;;;15.90;56.20;;;;;;5960887;24;20187;-90
2021/05/19 13:57:06;;;;;;;2.00;1.90;;;15.80;51.60;;;;;;5960813;24;20191;-87
2021/05/19 13:59:33;;;;;;;2.10;1.95;;;15.70;52.00;;;;;;5962932;24;20184;-86
2021/05/19 14:02:00;;;;;;;1.95;1.73;;;15.90;48.60;;;;;;5960197;24;20591;-87
2021/05/19 14:04:27;;;;;;;3.28;1.92;;;15.90;52.20;;;;;;5965383;24;20631;-87
2021/05/19 14:06:56;;;;;;;1.90;1.80;;;15.70;52.00;;;;;;5966505;24;20262;-86
2021/05/19 14:09:23;;;;;;;1.83;1.70;;;15.60;51.20;;;;;;5961200;24;20885;-86
2021/05/19 14:11:53;;;;;;;2.00;1.80;;;15.30;50.80;;;;;;5960485;24;20180;-89
2021/05/19 14:14:30;;;;;;;3.38;1.80;;;15.30;51.60;;;;;;5959117;24;20284;-86